sensor_id;sensor_type;location;lat;lon;timestamp;temperature;humidity
16700;DHT22;8466;52.286;21.124;2023-07-02T00:00:48;16.80;99.90
16700;DHT22;8466;52.286;21.124;2023-07-02T00:03:18;16.70;99.90
16700;DHT22;8466;52.286;21.124;2023-07-02T00:05:51;16.70;99.90
16700;DHT22;8466;52.286;21.124;2023-07-02T00:08:21;16.70;99.90
16700;DHT22;8466;52.286;21.124;2023-07-02T00:10:50;16.60;99.90
16700;DHT22;8466;52.286;21.124;2023-07-02T00:13:19;16.60;99.90
16700;DHT22;8466;52.286;21.124;2023-07-02T00:15:47;16.50;99.90
16700;DHT22;8466;52.286;21.124;2023-07-02T00:18:16;16.50;99.90
16700;DHT22;8466;52.286;21.124;2023-07-02T00:20:45;16.50;99.90
16700;DHT22;8466;52.286;21.124;2023-07-02T00:23:15;16.50;99.90
16700;DHT22;8466;52.286;21.124;2023-07-02T00:25:44;16.40;99.90
16700;DHT22;8466;52.286;21.124;2023-07-02T00:28:13;16.40;99.90
16700;DHT22;8466;52.286;21.124;2023-07-02T00:30:42;16.40;99.90
16700;DHT22;8466;52.286;21.124;2023-07-02T00:33:10;16.30;99.90
16700;DHT22;8466;52.286;21.124;2023-07-02T00:35:39;16.30;99.90
16700;DHT22;8466;52.286;21.124;2023-07-02T00:38:07;16.30;99.90
16700;DHT22;8466;52.286;21.124;2023-07-02T00:40:37;16.30;99.90
16700;DHT22;8466;52.286;21.124;2023-07-02T00:43:06;16.30;99.90
16700;DHT22;8466;52.286;21.124;2023-07-02T00:45:40;16.30;99.90
16700;DHT22;8466;52.286;21.124;2023-07-02T00:48:08;16.20;99.90
16700;DHT22;8466;52.286;21.124;2023-07-02T00:50:37;16.20;99.90
16700;DHT22;8466;52.286;21.124;2023-07-02T00:53:07;16.20;99.90
16700;DHT22;8466;52.286;21.124;2023-07-02T00:55:38;16.20;99.90
16700;DHT22;8466;52.286;21.124;2023-07-02T00:58:06;16.20;99.90
16700;DHT22;8466;52.286;21.124;2023-07-02T01:00:35;16.20;99.90
16700;DHT22;8466;52.286;21.124;2023-07-02T01:03:04;16.10;99.90
16700;DHT22;8466;52.286;21.124;2023-07-02T01:05:33;16.10;99.90
16700;DHT22;8466;52.286;21.124;2023-07-02T01:08:04;16.10;99.90
16700;DHT22;8466;52.286;21.124;2023-07-02T01:10:32;16.10;99.90
16700;DHT22;8466;52.286;21.124;2023-07-02T01:13:07;16.10;99.90
16700;DHT22;8466;52.286;21.124;2023-07-02T01:15:37;16.10;99.90
16700;DHT22;8466;52.286;21.124;2023-07-02T01:18:07;16.00;99.90
16700;DHT22;8466;52.286;21.124;2023-07-02T01:20:37;16.00;99.90
16700;DHT22;8466;52.286;21.124;2023-07-02T01:23:07;16.00;99.90
16700;DHT22;8466;52.286;21.124;2023-07-02T01:25:36;15.90;99.90
16700;DHT22;8466;52.286;21.124;2023-07-02T01:28:05;15.90;99.90
16700;DHT22;8466;52.286;21.124;2023-07-02T01:30:34;15.90;99.90
16700;DHT22;8466;52.286;21.124;2023-07-02T01:33:06;15.90;99.90
16700;DHT22;8466;52.286;21.124;2023-07-02T01:35:35;15.90;99.90
16700;DHT22;8466;52.286;21.124;2023-07-02T01:38:05;15.90;99.90
16700;DHT22;8466;52.286;21.124;2023-07-02T01:40:33;15.90;99.90
16700;DHT22;8466;52.286;21.124;2023-07-02T01:43:02;16.00;99.90
16700;DHT22;8466;52.286;21.124;2023-07-02T01:45:30;15.90;99.90
16700;DHT22;8466;52.286;21.124;2023-07-02T01:47:59;16.00;99.90
16700;DHT22;8466;52.286;21.124;2023-07-02T01:50:28;16.00;99.90
16700;DHT22;8466;52.286;21.124;2023-07-02T01:52:56;16.10;99.90
16700;DHT22;8466;52.286;21.124;2023-07-02T01:55:26;16.10;99.90
16700;DHT22;8466;52.286;21.124;2023-07-02T01:57:55;16.20;99.90
16700;DHT22;8466;52.286;21.124;2023-07-02T02:00:24;16.20;99.90
16700;DHT22;8466;52.286;21.124;2023-07-02T02:02:52;16.30;99.90
16700;DHT22;8466;52.286;21.124;2023-07-02T02:05:21;16.30;99.90
16700;DHT22;8466;52.286;21.124;2023-07-02T02:07:50;16.50;99.90
16700;DHT22;8466;52.286;21.124;2023-07-02T02:10:18;16.50;99.90
16700;DHT22;8466;52.286;21.124;2023-07-02T02:12:48;16.60;99.90
16700;DHT22;8466;52.286;21.124;2023-07-02T02:15:17;16.70;99.90
16700;DHT22;8466;52.286;21.124;2023-07-02T02:17:46;16.70;99.90
16700;DHT22;8466;52.286;21.124;2023-07-02T02:20:15;16.80;99.90
16700;DHT22;8466;52.286;21.124;2023-07-02T02:22:43;16.80;99.90
16700;DHT22;8466;52.286;21.124;2023-07-02T02:25:12;16.90;99.90
16700;DHT22;8466;52.286;21.124;2023-07-02T02:27:41;16.90;99.90
16700;DHT22;8466;52.286;21.124;2023-07-02T02:30:12;16.90;99.90
16700;DHT22;8466;52.286;21.124;2023-07-02T02:32:41;17.00;99.90
16700;DHT22;8466;52.286;21.124;2023-07-02T02:35:10;17.00;99.90
16700;DHT22;8466;52.286;21.124;2023-07-02T02:37:39;17.00;99.90
16700;DHT22;8466;52.286;21.124;2023-07-02T02:40:08;17.00;99.90
16700;DHT22;8466;52.286;21.124;2023-07-02T02:42:38;17.10;99.90
16700;DHT22;8466;52.286;21.124;2023-07-02T02:45:08;17.10;99.90
16700;DHT22;8466;52.286;21.124;2023-07-02T02:47:38;17.20;99.90
16700;DHT22;8466;52.286;21.124;2023-07-02T02:50:07;17.30;99.90
16700;DHT22;8466;52.286;21.124;2023-07-02T02:52:37;17.30;99.90
16700;DHT22;8466;52.286;21.124;2023-07-02T02:55:08;17.40;99.90
16700;DHT22;8466;52.286;21.124;2023-07-02T02:57:37;17.50;99.90
16700;DHT22;8466;52.286;21.124;2023-07-02T03:00:07;17.50;99.90
16700;DHT22;8466;52.286;21.124;2023-07-02T03:02:38;17.60;99.90
16700;DHT22;8466;52.286;21.124;2023-07-02T03:05:07;17.70;99.90
16700;DHT22;8466;52.286;21.124;2023-07-02T03:07:36;17.70;99.90
16700;DHT22;8466;52.286;21.124;2023-07-02T03:10:06;17.80;99.90
16700;DHT22;8466;52.286;21.124;2023-07-02T03:12:35;17.80;99.90
16700;DHT22;8466;52.286;21.124;2023-07-02T03:15:04;17.90;99.90
16700;DHT22;8466;52.286;21.124;2023-07-02T03:17:33;17.90;99.90
16700;DHT22;8466;52.286;21.124;2023-07-02T03:20:04;18.00;99.90
16700;DHT22;8466;52.286;21.124;2023-07-02T03:22:35;18.10;99.90
16700;DHT22;8466;52.286;21.124;2023-07-02T03:25:04;18.10;99.90
16700;DHT22;8466;52.286;21.124;2023-07-02T03:27:33;18.20;99.90
16700;DHT22;8466;52.286;21.124;2023-07-02T03:30:01;18.20;99.90
16700;DHT22;8466;52.286;21.124;2023-07-02T03:32:31;18.20;99.90
16700;DHT22;8466;52.286;21.124;2023-07-02T03:34:59;18.20;99.90
16700;DHT22;8466;52.286;21.124;2023-07-02T03:37:29;18.30;99.90
16700;DHT22;8466;52.286;21.124;2023-07-02T03:39:58;18.30;99.90
16700;DHT22;8466;52.286;21.124;2023-07-02T03:42:27;18.30;99.90
16700;DHT22;8466;52.286;21.124;2023-07-02T03:44:55;18.30;99.90
16700;DHT22;8466;52.286;21.124;2023-07-02T03:47:24;18.40;99.90
16700;DHT22;8466;52.286;21.124;2023-07-02T03:49:53;18.40;99.90
16700;DHT22;8466;52.286;21.124;2023-07-02T03:52:22;18.50;99.90
16700;DHT22;8466;52.286;21.124;2023-07-02T03:54:52;18.50;99.90
16700;DHT22;8466;52.286;21.124;2023-07-02T03:57:21;18.50;99.90
16700;DHT22;8466;52.286;21.124;2023-07-02T03:59:50;18.60;99.90
16700;DHT22;8466;52.286;21.124;2023-07-02T04:02:18;18.60;99.90
16700;DHT22;8466;52.286;21.124;2023-07-02T04:04:47;18.70;99.90
16700;DHT22;8466;52.286;21.124;2023-07-02T04:07:16;18.80;99.90
16700;DHT22;8466;52.286;21.124;2023-07-02T04:09:46;18.80;99.90
16700;DHT22;8466;52.286;21.124;2023-07-02T04:12:16;18.90;99.90
16700;DHT22;8466;52.286;21.124;2023-07-02T04:14:44;18.90;99.90
16700;DHT22;8466;52.286;21.124;2023-07-02T04:17:13;18.90;99.90
16700;DHT22;8466;52.286;21.124;2023-07-02T04:19:42;19.00;99.90
16700;DHT22;8466;52.286;21.124;2023-07-02T04:22:10;19.00;99.90
16700;DHT22;8466;52.286;21.124;2023-07-02T04:24:39;19.00;99.90
16700;DHT22;8466;52.286;21.124;2023-07-02T04:27:08;19.10;99.90
16700;DHT22;8466;52.286;21.124;2023-07-02T04:29:59;19.20;99.90
16700;DHT22;8466;52.286;21.124;2023-07-02T04:32:28;19.30;99.90
16700;DHT22;8466;52.286;21.124;2023-07-02T04:34:57;19.30;99.90
16700;DHT22;8466;52.286;21.124;2023-07-02T04:37:26;19.30;99.90
16700;DHT22;8466;52.286;21.124;2023-07-02T04:39:55;19.30;99.90
16700;DHT22;8466;52.286;21.124;2023-07-02T04:42:24;19.30;99.90
16700;DHT22;8466;52.286;21.124;2023-07-02T04:44:54;19.40;99.90
16700;DHT22;8466;52.286;21.124;2023-07-02T04:47:24;19.40;99.90
16700;DHT22;8466;52.286;21.124;2023-07-02T04:49:53;19.40;99.90
16700;DHT22;8466;52.286;21.124;2023-07-02T04:52:22;19.50;99.90
16700;DHT22;8466;52.286;21.124;2023-07-02T04:54:50;19.60;99.90
16700;DHT22;8466;52.286;21.124;2023-07-02T04:57:19;19.60;99.90
16700;DHT22;8466;52.286;21.124;2023-07-02T04:59:47;19.70;99.90
16700;DHT22;8466;52.286;21.124;2023-07-02T05:02:16;19.50;99.90
16700;DHT22;8466;52.286;21.124;2023-07-02T05:04:46;19.80;99.90
16700;DHT22;8466;52.286;21.124;2023-07-02T05:07:15;19.80;99.90
16700;DHT22;8466;52.286;21.124;2023-07-02T05:09:44;19.80;99.90
16700;DHT22;8466;52.286;21.124;2023-07-02T05:12:13;20.00;99.90
16700;DHT22;8466;52.286;21.124;2023-07-02T05:14:43;19.80;99.90
16700;DHT22;8466;52.286;21.124;2023-07-02T05:17:12;19.80;99.90
16700;DHT22;8466;52.286;21.124;2023-07-02T05:19:42;19.80;99.90
16700;DHT22;8466;52.286;21.124;2023-07-02T05:22:13;19.80;99.90
16700;DHT22;8466;52.286;21.124;2023-07-02T05:24:44;19.90;99.90
16700;DHT22;8466;52.286;21.124;2023-07-02T05:27:15;19.90;99.90
16700;DHT22;8466;52.286;21.124;2023-07-02T05:29:43;20.00;99.90
16700;DHT22;8466;52.286;21.124;2023-07-02T05:32:12;20.00;99.90
16700;DHT22;8466;52.286;21.124;2023-07-02T05:34:40;20.00;99.90
16700;DHT22;8466;52.286;21.124;2023-07-02T05:37:09;20.10;99.90
16700;DHT22;8466;52.286;21.124;2023-07-02T05:39:39;20.20;99.90
16700;DHT22;8466;52.286;21.124;2023-07-02T05:42:08;20.30;99.90
16700;DHT22;8466;52.286;21.124;2023-07-02T05:44:37;20.40;99.90
16700;DHT22;8466;52.286;21.124;2023-07-02T05:47:05;20.50;99.90
16700;DHT22;8466;52.286;21.124;2023-07-02T05:49:34;20.60;99.90
16700;DHT22;8466;52.286;21.124;2023-07-02T05:52:03;20.80;99.90
16700;DHT22;8466;52.286;21.124;2023-07-02T05:54:32;21.00;99.90
16700;DHT22;8466;52.286;21.124;2023-07-02T05:57:03;21.20;99.90
16700;DHT22;8466;52.286;21.124;2023-07-02T05:59:32;21.30;99.90
16700;DHT22;8466;52.286;21.124;2023-07-02T06:02:00;21.40;99.90
16700;DHT22;8466;52.286;21.124;2023-07-02T06:04:29;21.40;99.90
16700;DHT22;8466;52.286;21.124;2023-07-02T06:06:58;21.50;99.90
16700;DHT22;8466;52.286;21.124;2023-07-02T06:09:26;21.50;99.90
16700;DHT22;8466;52.286;21.124;2023-07-02T06:11:55;21.60;99.90
16700;DHT22;8466;52.286;21.124;2023-07-02T06:14:26;21.60;99.90
16700;DHT22;8466;52.286;21.124;2023-07-02T06:16:54;21.60;99.90
16700;DHT22;8466;52.286;21.124;2023-07-02T06:19:24;21.80;99.90
16700;DHT22;8466;52.286;21.124;2023-07-02T06:21:54;22.00;99.90
16700;DHT22;8466;52.286;21.124;2023-07-02T06:24:22;22.20;99.90
16700;DHT22;8466;52.286;21.124;2023-07-02T06:26:51;22.30;99.90
16700;DHT22;8466;52.286;21.124;2023-07-02T06:29:22;22.40;99.90
16700;DHT22;8466;52.286;21.124;2023-07-02T06:31:52;22.50;99.90
16700;DHT22;8466;52.286;21.124;2023-07-02T06:34:26;22.50;99.90
16700;DHT22;8466;52.286;21.124;2023-07-02T06:36:56;22.60;99.90
16700;DHT22;8466;52.286;21.124;2023-07-02T06:39:26;22.30;99.90
16700;DHT22;8466;52.286;21.124;2023-07-02T06:41:59;22.20;99.90
16700;DHT22;8466;52.286;21.124;2023-07-02T06:44:28;22.20;99.90
16700;DHT22;8466;52.286;21.124;2023-07-02T06:46:58;22.10;99.90
16700;DHT22;8466;52.286;21.124;2023-07-02T06:49:27;22.20;99.90
16700;DHT22;8466;52.286;21.124;2023-07-02T06:51:55;22.30;99.90
16700;DHT22;8466;52.286;21.124;2023-07-02T06:54:24;22.50;99.90
16700;DHT22;8466;52.286;21.124;2023-07-02T06:56:53;22.70;99.90
16700;DHT22;8466;52.286;21.124;2023-07-02T06:59:22;23.10;99.90
16700;DHT22;8466;52.286;21.124;2023-07-02T07:01:51;23.40;99.90
16700;DHT22;8466;52.286;21.124;2023-07-02T07:04:21;23.50;99.90
16700;DHT22;8466;52.286;21.124;2023-07-02T07:06:50;23.50;99.90
16700;DHT22;8466;52.286;21.124;2023-07-02T07:09:19;23.40;99.90
16700;DHT22;8466;52.286;21.124;2023-07-02T07:11:57;23.30;99.90
16700;DHT22;8466;52.286;21.124;2023-07-02T07:14:26;23.30;99.90
16700;DHT22;8466;52.286;21.124;2023-07-02T07:16:55;23.40;99.90
16700;DHT22;8466;52.286;21.124;2023-07-02T07:19:25;23.50;99.90
16700;DHT22;8466;52.286;21.124;2023-07-02T07:21:54;23.60;99.90
16700;DHT22;8466;52.286;21.124;2023-07-02T07:24:23;23.80;99.90
16700;DHT22;8466;52.286;21.124;2023-07-02T07:26:51;23.90;99.90
16700;DHT22;8466;52.286;21.124;2023-07-02T07:29:21;24.00;99.90
16700;DHT22;8466;52.286;21.124;2023-07-02T07:31:52;24.00;99.90
16700;DHT22;8466;52.286;21.124;2023-07-02T07:34:22;24.10;99.90
16700;DHT22;8466;52.286;21.124;2023-07-02T07:36:52;23.70;99.90
16700;DHT22;8466;52.286;21.124;2023-07-02T07:39:21;23.40;99.90
16700;DHT22;8466;52.286;21.124;2023-07-02T07:41:50;23.10;99.90
16700;DHT22;8466;52.286;21.124;2023-07-02T07:44:20;22.60;99.90
16700;DHT22;8466;52.286;21.124;2023-07-02T07:46:49;22.30;99.90
16700;DHT22;8466;52.286;21.124;2023-07-02T07:49:18;22.20;99.90
16700;DHT22;8466;52.286;21.124;2023-07-02T07:51:46;22.20;99.90
16700;DHT22;8466;52.286;21.124;2023-07-02T07:54:17;22.20;99.90
16700;DHT22;8466;52.286;21.124;2023-07-02T07:56:46;22.30;99.90
16700;DHT22;8466;52.286;21.124;2023-07-02T07:59:15;22.40;99.90
16700;DHT22;8466;52.286;21.124;2023-07-02T08:01:48;22.50;99.90
16700;DHT22;8466;52.286;21.124;2023-07-02T08:04:18;22.50;99.90
16700;DHT22;8466;52.286;21.124;2023-07-02T08:06:47;22.40;99.90
16700;DHT22;8466;52.286;21.124;2023-07-02T08:09:17;22.40;99.90
16700;DHT22;8466;52.286;21.124;2023-07-02T08:11:46;22.40;99.90
16700;DHT22;8466;52.286;21.124;2023-07-02T08:14:16;22.50;99.90
16700;DHT22;8466;52.286;21.124;2023-07-02T08:16:46;22.50;99.90
16700;DHT22;8466;52.286;21.124;2023-07-02T08:19:15;22.60;99.90
16700;DHT22;8466;52.286;21.124;2023-07-02T08:21:44;22.80;99.90
16700;DHT22;8466;52.286;21.124;2023-07-02T08:24:13;22.90;99.90
16700;DHT22;8466;52.286;21.124;2023-07-02T08:26:43;22.90;99.90
16700;DHT22;8466;52.286;21.124;2023-07-02T08:29:14;23.10;99.90
16700;DHT22;8466;52.286;21.124;2023-07-02T08:31:42;23.30;99.90
16700;DHT22;8466;52.286;21.124;2023-07-02T08:34:11;23.50;99.90
16700;DHT22;8466;52.286;21.124;2023-07-02T08:36:40;23.80;99.90
16700;DHT22;8466;52.286;21.124;2023-07-02T08:39:10;24.00;99.90
16700;DHT22;8466;52.286;21.124;2023-07-02T08:41:44;24.10;99.90
16700;DHT22;8466;52.286;21.124;2023-07-02T08:44:13;24.30;99.90
16700;DHT22;8466;52.286;21.124;2023-07-02T08:46:42;24.40;99.90
16700;DHT22;8466;52.286;21.124;2023-07-02T08:49:11;24.40;99.90
16700;DHT22;8466;52.286;21.124;2023-07-02T08:51:40;24.20;99.90
16700;DHT22;8466;52.286;21.124;2023-07-02T08:54:09;24.00;99.90
16700;DHT22;8466;52.286;21.124;2023-07-02T08:56:38;23.70;99.90
16700;DHT22;8466;52.286;21.124;2023-07-02T08:59:08;23.20;99.90
16700;DHT22;8466;52.286;21.124;2023-07-02T09:01:47;23.00;99.90
16700;DHT22;8466;52.286;21.124;2023-07-02T09:04:17;22.80;99.90
16700;DHT22;8466;52.286;21.124;2023-07-02T09:06:46;22.60;99.90
16700;DHT22;8466;52.286;21.124;2023-07-02T09:09:16;22.60;99.90
16700;DHT22;8466;52.286;21.124;2023-07-02T09:11:48;22.60;99.90
16700;DHT22;8466;52.286;21.124;2023-07-02T09:14:29;22.80;99.90
16700;DHT22;8466;52.286;21.124;2023-07-02T09:17:05;23.20;99.90
16700;DHT22;8466;52.286;21.124;2023-07-02T09:19:34;23.70;99.90
16700;DHT22;8466;52.286;21.124;2023-07-02T09:22:04;24.10;99.90
16700;DHT22;8466;52.286;21.124;2023-07-02T09:24:33;24.30;99.90
16700;DHT22;8466;52.286;21.124;2023-07-02T09:27:02;24.40;99.90
16700;DHT22;8466;52.286;21.124;2023-07-02T09:29:33;24.70;99.90
16700;DHT22;8466;52.286;21.124;2023-07-02T09:32:04;24.70;99.90
16700;DHT22;8466;52.286;21.124;2023-07-02T09:34:38;24.60;99.90
16700;DHT22;8466;52.286;21.124;2023-07-02T09:37:09;24.60;99.90
16700;DHT22;8466;52.286;21.124;2023-07-02T09:39:38;24.50;99.90
16700;DHT22;8466;52.286;21.124;2023-07-02T09:42:08;24.50;99.90
16700;DHT22;8466;52.286;21.124;2023-07-02T09:44:40;24.30;99.90
16700;DHT22;8466;52.286;21.124;2023-07-02T09:47:10;24.40;99.90
16700;DHT22;8466;52.286;21.124;2023-07-02T09:49:43;24.10;99.90
16700;DHT22;8466;52.286;21.124;2023-07-02T09:52:14;24.40;99.90
16700;DHT22;8466;52.286;21.124;2023-07-02T09:54:43;24.60;99.90
16700;DHT22;8466;52.286;21.124;2023-07-02T09:57:11;24.80;99.90
16700;DHT22;8466;52.286;21.124;2023-07-02T09:59:42;25.00;99.90
16700;DHT22;8466;52.286;21.124;2023-07-02T10:02:12;25.10;99.90
16700;DHT22;8466;52.286;21.124;2023-07-02T10:04:41;25.60;99.90
16700;DHT22;8466;52.286;21.124;2023-07-02T10:07:12;25.90;99.90
16700;DHT22;8466;52.286;21.124;2023-07-02T10:09:44;26.20;99.90
16700;DHT22;8466;52.286;21.124;2023-07-02T10:12:18;26.30;99.90
16700;DHT22;8466;52.286;21.124;2023-07-02T10:14:52;26.30;99.90
16700;DHT22;8466;52.286;21.124;2023-07-02T10:17:26;26.20;99.90
16700;DHT22;8466;52.286;21.124;2023-07-02T10:19:58;26.20;99.90
16700;DHT22;8466;52.286;21.124;2023-07-02T10:22:28;26.00;99.90
16700;DHT22;8466;52.286;21.124;2023-07-02T10:25:23;25.90;99.90
16700;DHT22;8466;52.286;21.124;2023-07-02T10:27:58;25.50;99.90
16700;DHT22;8466;52.286;21.124;2023-07-02T10:30:36;25.20;99.90
16700;DHT22;8466;52.286;21.124;2023-07-02T10:33:13;24.80;99.90
16700;DHT22;8466;52.286;21.124;2023-07-02T10:35:52;24.60;99.90
16700;DHT22;8466;52.286;21.124;2023-07-02T10:38:24;24.60;99.90
16700;DHT22;8466;52.286;21.124;2023-07-02T10:40:58;24.80;99.90
16700;DHT22;8466;52.286;21.124;2023-07-02T10:43:32;25.20;99.90
16700;DHT22;8466;52.286;21.124;2023-07-02T10:46:03;25.50;99.90
16700;DHT22;8466;52.286;21.124;2023-07-02T10:48:35;25.80;99.90
16700;DHT22;8466;52.286;21.124;2023-07-02T10:51:11;26.00;99.90
16700;DHT22;8466;52.286;21.124;2023-07-02T10:53:40;26.00;99.90
16700;DHT22;8466;52.286;21.124;2023-07-02T10:56:15;25.90;99.90
16700;DHT22;8466;52.286;21.124;2023-07-02T10:58:44;25.60;99.90
16700;DHT22;8466;52.286;21.124;2023-07-02T11:01:22;25.30;99.90
16700;DHT22;8466;52.286;21.124;2023-07-02T11:03:58;24.90;99.90
16700;DHT22;8466;52.286;21.124;2023-07-02T11:06:28;24.70;99.90
16700;DHT22;8466;52.286;21.124;2023-07-02T11:08:59;24.30;99.90
16700;DHT22;8466;52.286;21.124;2023-07-02T11:11:28;23.70;99.90
16700;DHT22;8466;52.286;21.124;2023-07-02T11:13:57;23.30;99.90
16700;DHT22;8466;52.286;21.124;2023-07-02T11:16:28;23.00;99.90
16700;DHT22;8466;52.286;21.124;2023-07-02T11:19:07;22.70;99.90
16700;DHT22;8466;52.286;21.124;2023-07-02T11:21:36;22.40;99.90
16700;DHT22;8466;52.286;21.124;2023-07-02T11:24:07;22.20;99.90
16700;DHT22;8466;52.286;21.124;2023-07-02T11:26:37;22.00;99.90
16700;DHT22;8466;52.286;21.124;2023-07-02T11:29:11;21.50;99.90
16700;DHT22;8466;52.286;21.124;2023-07-02T11:31:41;21.20;99.90
16700;DHT22;8466;52.286;21.124;2023-07-02T11:34:16;21.00;99.90
16700;DHT22;8466;52.286;21.124;2023-07-02T11:36:48;21.00;99.90
16700;DHT22;8466;52.286;21.124;2023-07-02T11:39:21;21.30;99.90
16700;DHT22;8466;52.286;21.124;2023-07-02T11:41:50;21.70;99.90
16700;DHT22;8466;52.286;21.124;2023-07-02T11:44:18;22.00;99.90
16700;DHT22;8466;52.286;21.124;2023-07-02T11:46:49;22.20;99.90
16700;DHT22;8466;52.286;21.124;2023-07-02T11:49:18;22.40;99.90
16700;DHT22;8466;52.286;21.124;2023-07-02T11:51:47;22.70;99.90
16700;DHT22;8466;52.286;21.124;2023-07-02T11:54:16;23.00;99.90
16700;DHT22;8466;52.286;21.124;2023-07-02T11:56:46;23.20;99.90
16700;DHT22;8466;52.286;21.124;2023-07-02T11:59:14;23.50;99.90
16700;DHT22;8466;52.286;21.124;2023-07-02T12:01:43;23.60;99.90
16700;DHT22;8466;52.286;21.124;2023-07-02T12:04:13;23.60;99.90
16700;DHT22;8466;52.286;21.124;2023-07-02T12:06:43;23.80;99.90
16700;DHT22;8466;52.286;21.124;2023-07-02T12:09:12;23.90;99.90
16700;DHT22;8466;52.286;21.124;2023-07-02T12:11:41;24.00;99.90
16700;DHT22;8466;52.286;21.124;2023-07-02T12:14:12;24.30;99.90
16700;DHT22;8466;52.286;21.124;2023-07-02T12:16:41;24.50;99.90
16700;DHT22;8466;52.286;21.124;2023-07-02T12:19:10;24.50;99.90
16700;DHT22;8466;52.286;21.124;2023-07-02T12:21:40;24.60;99.90
16700;DHT22;8466;52.286;21.124;2023-07-02T12:24:09;24.60;99.90
16700;DHT22;8466;52.286;21.124;2023-07-02T12:26:41;24.50;99.90
16700;DHT22;8466;52.286;21.124;2023-07-02T12:29:11;24.50;99.90
16700;DHT22;8466;52.286;21.124;2023-07-02T12:31:40;24.60;99.90
16700;DHT22;8466;52.286;21.124;2023-07-02T12:34:10;24.80;99.90
16700;DHT22;8466;52.286;21.124;2023-07-02T12:36:40;24.90;99.90
16700;DHT22;8466;52.286;21.124;2023-07-02T12:39:16;24.80;99.90
16700;DHT22;8466;52.286;21.124;2023-07-02T12:41:47;24.70;99.90
16700;DHT22;8466;52.286;21.124;2023-07-02T12:44:16;24.60;99.90
16700;DHT22;8466;52.286;21.124;2023-07-02T12:46:45;24.80;99.90
16700;DHT22;8466;52.286;21.124;2023-07-02T12:49:14;25.10;99.90
16700;DHT22;8466;52.286;21.124;2023-07-02T12:51:44;25.30;99.90
16700;DHT22;8466;52.286;21.124;2023-07-02T12:54:14;25.60;99.90
16700;DHT22;8466;52.286;21.124;2023-07-02T12:56:43;25.80;99.90
16700;DHT22;8466;52.286;21.124;2023-07-02T12:59:12;25.90;99.90
16700;DHT22;8466;52.286;21.124;2023-07-02T13:01:42;26.00;99.90
16700;DHT22;8466;52.286;21.124;2023-07-02T13:04:11;26.00;99.90
16700;DHT22;8466;52.286;21.124;2023-07-02T13:06:43;26.00;99.90
16700;DHT22;8466;52.286;21.124;2023-07-02T13:09:13;25.80;99.90
16700;DHT22;8466;52.286;21.124;2023-07-02T13:11:43;25.50;99.90
16700;DHT22;8466;52.286;21.124;2023-07-02T13:14:11;25.20;99.90
16700;DHT22;8466;52.286;21.124;2023-07-02T13:16:40;24.90;99.90
16700;DHT22;8466;52.286;21.124;2023-07-02T13:19:10;24.60;99.90
16700;DHT22;8466;52.286;21.124;2023-07-02T13:21:39;24.40;99.90
16700;DHT22;8466;52.286;21.124;2023-07-02T13:24:10;24.50;99.90
16700;DHT22;8466;52.286;21.124;2023-07-02T13:26:39;24.60;99.90
16700;DHT22;8466;52.286;21.124;2023-07-02T13:29:11;24.70;99.90
16700;DHT22;8466;52.286;21.124;2023-07-02T13:31:40;24.80;99.90
16700;DHT22;8466;52.286;21.124;2023-07-02T13:34:09;24.90;99.30
16700;DHT22;8466;52.286;21.124;2023-07-02T13:36:38;25.10;98.40
16700;DHT22;8466;52.286;21.124;2023-07-02T13:39:06;25.40;95.90
16700;DHT22;8466;52.286;21.124;2023-07-02T13:41:37;25.60;95.00
16700;DHT22;8466;52.286;21.124;2023-07-02T13:44:07;25.70;92.90
16700;DHT22;8466;52.286;21.124;2023-07-02T13:46:36;25.70;92.00
16700;DHT22;8466;52.286;21.124;2023-07-02T13:49:04;25.70;92.40
16700;DHT22;8466;52.286;21.124;2023-07-02T13:51:33;25.80;90.80
16700;DHT22;8466;52.286;21.124;2023-07-02T13:54:02;25.80;90.70
16700;DHT22;8466;52.286;21.124;2023-07-02T13:56:32;25.80;89.90
16700;DHT22;8466;52.286;21.124;2023-07-02T13:59:08;25.70;87.80
16700;DHT22;8466;52.286;21.124;2023-07-02T14:01:46;25.70;89.80
16700;DHT22;8466;52.286;21.124;2023-07-02T14:04:18;25.70;88.30
16700;DHT22;8466;52.286;21.124;2023-07-02T14:06:47;25.70;87.40
16700;DHT22;8466;52.286;21.124;2023-07-02T14:09:16;25.90;88.20
16700;DHT22;8466;52.286;21.124;2023-07-02T14:11:45;26.00;85.70
16700;DHT22;8466;52.286;21.124;2023-07-02T14:14:15;26.10;84.70
16700;DHT22;8466;52.286;21.124;2023-07-02T14:16:44;25.90;82.20
16700;DHT22;8466;52.286;21.124;2023-07-02T14:19:13;26.20;81.90
16700;DHT22;8466;52.286;21.124;2023-07-02T14:21:44;26.10;84.70
16700;DHT22;8466;52.286;21.124;2023-07-02T14:24:18;26.10;81.80
16700;DHT22;8466;52.286;21.124;2023-07-02T14:26:47;25.90;83.10
16700;DHT22;8466;52.286;21.124;2023-07-02T14:29:17;25.90;84.80
16700;DHT22;8466;52.286;21.124;2023-07-02T14:31:50;25.70;81.60
16700;DHT22;8466;52.286;21.124;2023-07-02T14:34:19;25.60;84.50
16700;DHT22;8466;52.286;21.124;2023-07-02T14:36:48;25.40;83.20
16700;DHT22;8466;52.286;21.124;2023-07-02T14:39:17;25.30;84.50
16700;DHT22;8466;52.286;21.124;2023-07-02T14:41:45;25.00;83.10
16700;DHT22;8466;52.286;21.124;2023-07-02T14:44:14;24.90;86.40
16700;DHT22;8466;52.286;21.124;2023-07-02T14:46:44;24.80;88.90
16700;DHT22;8466;52.286;21.124;2023-07-02T14:49:14;24.90;86.30
16700;DHT22;8466;52.286;21.124;2023-07-02T14:51:44;25.10;85.70
16700;DHT22;8466;52.286;21.124;2023-07-02T14:54:13;25.40;84.90
16700;DHT22;8466;52.286;21.124;2023-07-02T14:56:42;25.80;84.10
16700;DHT22;8466;52.286;21.124;2023-07-02T14:59:11;26.00;83.10
16700;DHT22;8466;52.286;21.124;2023-07-02T15:01:41;26.00;84.10
16700;DHT22;8466;52.286;21.124;2023-07-02T15:04:11;26.00;83.00
16700;DHT22;8466;52.286;21.124;2023-07-02T15:06:41;26.00;83.30
16700;DHT22;8466;52.286;21.124;2023-07-02T15:09:14;26.00;81.80
16700;DHT22;8466;52.286;21.124;2023-07-02T15:11:43;26.00;82.20
16700;DHT22;8466;52.286;21.124;2023-07-02T15:14:11;26.20;81.40
16700;DHT22;8466;52.286;21.124;2023-07-02T15:16:40;26.40;79.50
16700;DHT22;8466;52.286;21.124;2023-07-02T15:19:11;26.80;80.90
16700;DHT22;8466;52.286;21.124;2023-07-02T15:21:40;27.20;81.40
16700;DHT22;8466;52.286;21.124;2023-07-02T15:24:09;27.70;79.80
16700;DHT22;8466;52.286;21.124;2023-07-02T15:26:41;28.00;73.90
16700;DHT22;8466;52.286;21.124;2023-07-02T15:29:10;28.10;73.60
16700;DHT22;8466;52.286;21.124;2023-07-02T15:31:39;28.20;71.60
16700;DHT22;8466;52.286;21.124;2023-07-02T15:34:14;28.20;76.50
16700;DHT22;8466;52.286;21.124;2023-07-02T15:36:46;28.00;74.50
16700;DHT22;8466;52.286;21.124;2023-07-02T15:39:15;28.20;74.80
16700;DHT22;8466;52.286;21.124;2023-07-02T15:41:49;28.30;73.20
16700;DHT22;8466;52.286;21.124;2023-07-02T15:44:18;28.60;72.30
16700;DHT22;8466;52.286;21.124;2023-07-02T15:46:47;29.00;71.70